sensor_id;sensor_type;location;lat;lon;timestamp;P1;durP1;ratioP1;P2;durP2;ratioP2
67146;SDS011;54061;52.036;5.558;2022-08-14T00:00:49;10.95;;;3.53;;
67146;SDS011;54061;52.036;5.558;2022-08-14T00:03:21;5.75;;;3.47;;
67146;SDS011;54061;52.036;5.558;2022-08-14T00:05:50;3.60;;;3.30;;
67146;SDS011;54061;52.036;5.558;2022-08-14T00:08:16;4.25;;;3.58;;
67146;SDS011;54061;52.036;5.558;2022-08-14T00:10:43;5.57;;;3.25;;
67146;SDS011;54061;52.036;5.558;2022-08-14T00:13:09;9.52;;;3.72;;
67146;SDS011;54061;52.036;5.558;2022-08-14T00:15:37;6.72;;;3.58;;
67146;SDS011;54061;52.036;5.558;2022-08-14T00:18:06;8.38;;;3.63;;
67146;SDS011;54061;52.036;5.558;2022-08-14T00:20:34;3.85;;;3.45;;
67146;SDS011;54061;52.036;5.558;2022-08-14T00:23:02;4.68;;;3.63;;
67146;SDS011;54061;52.036;5.558;2022-08-14T00:25:29;4.72;;;3.67;;
67146;SDS011;54061;52.036;5.558;2022-08-14T00:27:55;4.57;;;3.67;;
67146;SDS011;54061;52.036;5.558;2022-08-14T00:30:20;5.72;;;3.80;;
67146;SDS011;54061;52.036;5.558;2022-08-14T00:32:46;6.32;;;3.40;;
67146;SDS011;54061;52.036;5.558;2022-08-14T00:35:12;4.93;;;3.67;;
67146;SDS011;54061;52.036;5.558;2022-08-14T00:37:38;5.60;;;3.65;;
67146;SDS011;54061;52.036;5.558;2022-08-14T00:40:06;6.30;;;4.03;;
67146;SDS011;54061;52.036;5.558;2022-08-14T00:42:33;6.38;;;3.55;;
67146;SDS011;54061;52.036;5.558;2022-08-14T00:44:59;4.60;;;3.78;;
67146;SDS011;54061;52.036;5.558;2022-08-14T00:47:24;3.80;;;3.47;;
67146;SDS011;54061;52.036;5.558;2022-08-14T00:49:51;7.85;;;3.95;;
67146;SDS011;54061;52.036;5.558;2022-08-14T00:52:18;4.45;;;3.92;;
67146;SDS011;54061;52.036;5.558;2022-08-14T00:54:46;5.75;;;4.05;;
67146;SDS011;54061;52.036;5.558;2022-08-14T00:57:21;4.93;;;4.07;;
67146;SDS011;54061;52.036;5.558;2022-08-14T00:59:48;7.03;;;4.03;;
67146;SDS011;54061;52.036;5.558;2022-08-14T01:02:16;15.82;;;4.22;;
67146;SDS011;54061;52.036;5.558;2022-08-14T01:04:46;10.35;;;3.83;;
67146;SDS011;54061;52.036;5.558;2022-08-14T01:07:13;4.88;;;4.10;;
67146;SDS011;54061;52.036;5.558;2022-08-14T01:09:44;4.72;;;4.13;;
67146;SDS011;54061;52.036;5.558;2022-08-14T01:12:16;7.10;;;4.23;;
67146;SDS011;54061;52.036;5.558;2022-08-14T01:14:42;6.47;;;4.00;;
67146;SDS011;54061;52.036;5.558;2022-08-14T01:17:08;4.43;;;3.78;;
67146;SDS011;54061;52.036;5.558;2022-08-14T01:19:34;11.25;;;4.35;;
67146;SDS011;54061;52.036;5.558;2022-08-14T01:22:18;4.78;;;4.20;;
67146;SDS011;54061;52.036;5.558;2022-08-14T01:24:44;9.75;;;4.30;;
67146;SDS011;54061;52.036;5.558;2022-08-14T01:27:14;6.50;;;4.07;;
67146;SDS011;54061;52.036;5.558;2022-08-14T01:29:44;10.43;;;4.38;;
67146;SDS011;54061;52.036;5.558;2022-08-14T01:32:11;8.30;;;4.10;;
67146;SDS011;54061;52.036;5.558;2022-08-14T01:34:37;6.95;;;4.30;;
67146;SDS011;54061;52.036;5.558;2022-08-14T01:37:03;6.13;;;4.20;;
67146;SDS011;54061;52.036;5.558;2022-08-14T01:39:28;8.35;;;4.28;;
67146;SDS011;54061;52.036;5.558;2022-08-14T01:41:54;9.43;;;3.92;;
67146;SDS011;54061;52.036;5.558;2022-08-14T01:44:22;13.25;;;4.50;;
67146;SDS011;54061;52.036;5.558;2022-08-14T01:46:52;4.97;;;4.25;;
67146;SDS011;54061;52.036;5.558;2022-08-14T01:49:19;12.43;;;4.70;;
67146;SDS011;54061;52.036;5.558;2022-08-14T01:51:46;8.23;;;4.28;;
67146;SDS011;54061;52.036;5.558;2022-08-14T01:54:13;7.88;;;4.57;;
67146;SDS011;54061;52.036;5.558;2022-08-14T01:56:45;6.63;;;4.00;;
67146;SDS011;54061;52.036;5.558;2022-08-14T02:01:40;5.93;;;4.60;;
67146;SDS011;54061;52.036;5.558;2022-08-14T02:04:07;8.75;;;4.47;;
67146;SDS011;54061;52.036;5.558;2022-08-14T02:06:34;4.90;;;4.32;;
67146;SDS011;54061;52.036;5.558;2022-08-14T02:09:02;7.40;;;4.28;;
67146;SDS011;54061;52.036;5.558;2022-08-14T02:11:31;4.85;;;4.30;;
67146;SDS011;54061;52.036;5.558;2022-08-14T02:13:59;4.93;;;4.22;;
67146;SDS011;54061;52.036;5.558;2022-08-14T02:16:28;5.03;;;3.97;;
67146;SDS011;54061;52.036;5.558;2022-08-14T02:18:58;5.45;;;4.13;;
67146;SDS011;54061;52.036;5.558;2022-08-14T02:21:27;5.13;;;3.90;;
67146;SDS011;54061;52.036;5.558;2022-08-14T02:23:55;6.10;;;4.40;;
67146;SDS011;54061;52.036;5.558;2022-08-14T02:26:23;11.68;;;4.07;;
67146;SDS011;54061;52.036;5.558;2022-08-14T02:28:53;11.20;;;4.40;;
67146;SDS011;54061;52.036;5.558;2022-08-14T02:31:23;7.82;;;4.07;;
67146;SDS011;54061;52.036;5.558;2022-08-14T02:33:55;10.38;;;4.32;;
67146;SDS011;54061;52.036;5.558;2022-08-14T02:36:21;8.07;;;4.18;;
67146;SDS011;54061;52.036;5.558;2022-08-14T02:38:46;7.00;;;4.32;;
67146;SDS011;54061;52.036;5.558;2022-08-14T02:41:13;6.90;;;3.95;;
67146;SDS011;54061;52.036;5.558;2022-08-14T02:43:39;6.28;;;4.40;;
67146;SDS011;54061;52.036;5.558;2022-08-14T02:46:06;7.13;;;4.22;;
67146;SDS011;54061;52.036;5.558;2022-08-14T02:48:36;8.32;;;4.65;;
67146;SDS011;54061;52.036;5.558;2022-08-14T02:51:12;6.75;;;4.50;;
67146;SDS011;54061;52.036;5.558;2022-08-14T02:53:40;7.10;;;4.25;;
67146;SDS011;54061;52.036;5.558;2022-08-14T02:56:08;9.02;;;5.00;;
67146;SDS011;54061;52.036;5.558;2022-08-14T02:58:38;6.00;;;4.50;;
67146;SDS011;54061;52.036;5.558;2022-08-14T03:01:07;6.15;;;5.00;;
67146;SDS011;54061;52.036;5.558;2022-08-14T03:03:34;5.32;;;4.50;;
67146;SDS011;54061;52.036;5.558;2022-08-14T03:06:01;5.50;;;4.45;;
67146;SDS011;54061;52.036;5.558;2022-08-14T03:08:28;5.88;;;4.50;;
67146;SDS011;54061;52.036;5.558;2022-08-14T03:11:00;7.15;;;4.25;;
67146;SDS011;54061;52.036;5.558;2022-08-14T03:13:30;6.13;;;5.22;;
67146;SDS011;54061;52.036;5.558;2022-08-14T03:16:01;8.18;;;5.53;;
67146;SDS011;54061;52.036;5.558;2022-08-14T03:18:27;9.95;;;5.15;;
67146;SDS011;54061;52.036;5.558;2022-08-14T03:20:53;11.30;;;4.93;;
67146;SDS011;54061;52.036;5.558;2022-08-14T03:23:19;9.82;;;5.18;;
67146;SDS011;54061;52.036;5.558;2022-08-14T03:25:45;5.85;;;4.68;;
67146;SDS011;54061;52.036;5.558;2022-08-14T03:28:11;6.18;;;5.10;;
67146;SDS011;54061;52.036;5.558;2022-08-14T03:30:38;9.23;;;5.28;;
67146;SDS011;54061;52.036;5.558;2022-08-14T03:33:04;6.35;;;5.28;;
67146;SDS011;54061;52.036;5.558;2022-08-14T03:35:32;8.25;;;5.47;;
67146;SDS011;54061;52.036;5.558;2022-08-14T03:38:05;9.45;;;4.82;;
67146;SDS011;54061;52.036;5.558;2022-08-14T03:40:36;6.13;;;5.22;;
67146;SDS011;54061;52.036;5.558;2022-08-14T03:43:08;8.75;;;5.30;;
67146;SDS011;54061;52.036;5.558;2022-08-14T03:45:35;8.00;;;5.75;;
67146;SDS011;54061;52.036;5.558;2022-08-14T03:48:11;8.05;;;5.82;;
67146;SDS011;54061;52.036;5.558;2022-08-14T03:50:43;7.55;;;5.97;;
67146;SDS011;54061;52.036;5.558;2022-08-14T03:53:13;8.20;;;6.10;;
67146;SDS011;54061;52.036;5.558;2022-08-14T03:55:40;8.43;;;6.00;;
67146;SDS011;54061;52.036;5.558;2022-08-14T03:58:07;10.48;;;5.70;;
67146;SDS011;54061;52.036;5.558;2022-08-14T04:00:34;7.72;;;5.80;;
67146;SDS011;54061;52.036;5.558;2022-08-14T04:03:02;12.05;;;5.72;;
67146;SDS011;54061;52.036;5.558;2022-08-14T04:05:29;7.13;;;5.53;;
67146;SDS011;54061;52.036;5.558;2022-08-14T04:07:55;6.65;;;5.95;;
67146;SDS011;54061;52.036;5.558;2022-08-14T04:10:22;6.32;;;5.72;;
67146;SDS011;54061;52.036;5.558;2022-08-14T04:12:48;7.43;;;5.47;;
67146;SDS011;54061;52.036;5.558;2022-08-14T04:15:14;7.28;;;5.68;;
67146;SDS011;54061;52.036;5.558;2022-08-14T04:17:40;11.63;;;5.90;;
67146;SDS011;54061;52.036;5.558;2022-08-14T04:20:07;7.20;;;6.30;;
67146;SDS011;54061;52.036;5.558;2022-08-14T04:22:34;9.07;;;6.43;;
67146;SDS011;54061;52.036;5.558;2022-08-14T04:25:00;11.30;;;6.00;;
67146;SDS011;54061;52.036;5.558;2022-08-14T04:27:26;9.60;;;6.10;;
67146;SDS011;54061;52.036;5.558;2022-08-14T04:29:52;8.57;;;5.88;;
67146;SDS011;54061;52.036;5.558;2022-08-14T04:32:18;7.15;;;6.32;;
67146;SDS011;54061;52.036;5.558;2022-08-14T04:34:46;6.72;;;6.03;;
67146;SDS011;54061;52.036;5.558;2022-08-14T04:37:11;10.65;;;6.30;;
67146;SDS011;54061;52.036;5.558;2022-08-14T04:39:56;10.10;;;6.70;;
67146;SDS011;54061;52.036;5.558;2022-08-14T04:42:40;7.00;;;6.25;;
67146;SDS011;54061;52.036;5.558;2022-08-14T04:45:25;8.68;;;6.45;;
67146;SDS011;54061;52.036;5.558;2022-08-14T04:50:47;9.63;;;6.40;;
67146;SDS011;54061;52.036;5.558;2022-08-14T04:53:16;10.13;;;6.82;;
67146;SDS011;54061;52.036;5.558;2022-08-14T04:55:47;9.80;;;6.30;;
67146;SDS011;54061;52.036;5.558;2022-08-14T04:58:13;8.25;;;6.82;;
67146;SDS011;54061;52.036;5.558;2022-08-14T05:00:41;9.00;;;7.03;;
67146;SDS011;54061;52.036;5.558;2022-08-14T05:03:08;13.30;;;6.50;;
67146;SDS011;54061;52.036;5.558;2022-08-14T05:05:34;8.15;;;6.28;;
67146;SDS011;54061;52.036;5.558;2022-08-14T05:08:06;7.50;;;6.45;;
67146;SDS011;54061;52.036;5.558;2022-08-14T05:10:36;11.90;;;7.45;;
67146;SDS011;54061;52.036;5.558;2022-08-14T05:13:03;10.60;;;6.88;;
67146;SDS011;54061;52.036;5.558;2022-08-14T05:15:30;13.43;;;7.38;;
67146;SDS011;54061;52.036;5.558;2022-08-14T05:18:00;17.52;;;7.30;;
67146;SDS011;54061;52.036;5.558;2022-08-14T05:20:33;9.10;;;6.70;;
67146;SDS011;54061;52.036;5.558;2022-08-14T05:22:59;14.25;;;7.00;;
67146;SDS011;54061;52.036;5.558;2022-08-14T05:25:26;18.48;;;7.72;;
67146;SDS011;54061;52.036;5.558;2022-08-14T05:27:51;19.05;;;7.90;;
67146;SDS011;54061;52.036;5.558;2022-08-14T05:30:17;12.68;;;6.45;;
67146;SDS011;54061;52.036;5.558;2022-08-14T05:32:43;11.68;;;7.65;;
67146;SDS011;54061;52.036;5.558;2022-08-14T05:35:09;12.57;;;7.78;;
67146;SDS011;54061;52.036;5.558;2022-08-14T05:37:35;10.85;;;7.72;;
67146;SDS011;54061;52.036;5.558;2022-08-14T05:40:03;10.55;;;7.55;;
67146;SDS011;54061;52.036;5.558;2022-08-14T05:42:29;11.55;;;7.47;;
67146;SDS011;54061;52.036;5.558;2022-08-14T05:44:55;10.73;;;8.00;;
67146;SDS011;54061;52.036;5.558;2022-08-14T05:47:21;10.48;;;6.95;;
67146;SDS011;54061;52.036;5.558;2022-08-14T05:49:48;8.65;;;6.88;;
67146;SDS011;54061;52.036;5.558;2022-08-14T05:52:13;11.38;;;7.70;;
67146;SDS011;54061;52.036;5.558;2022-08-14T05:54:39;14.68;;;7.85;;
67146;SDS011;54061;52.036;5.558;2022-08-14T05:57:05;11.30;;;7.50;;
67146;SDS011;54061;52.036;5.558;2022-08-14T05:59:30;10.32;;;7.70;;
67146;SDS011;54061;52.036;5.558;2022-08-14T06:01:56;9.07;;;7.18;;
67146;SDS011;54061;52.036;5.558;2022-08-14T06:04:21;12.68;;;7.07;;
67146;SDS011;54061;52.036;5.558;2022-08-14T06:06:47;13.20;;;7.15;;
67146;SDS011;54061;52.036;5.558;2022-08-14T06:09:12;11.52;;;6.55;;
67146;SDS011;54061;52.036;5.558;2022-08-14T06:11:38;11.65;;;6.60;;
67146;SDS011;54061;52.036;5.558;2022-08-14T06:14:04;10.00;;;6.63;;
67146;SDS011;54061;52.036;5.558;2022-08-14T06:16:30;9.23;;;6.75;;
67146;SDS011;54061;52.036;5.558;2022-08-14T06:18:55;6.78;;;5.70;;
67146;SDS011;54061;52.036;5.558;2022-08-14T06:21:21;10.93;;;6.47;;
67146;SDS011;54061;52.036;5.558;2022-08-14T06:23:46;6.95;;;6.18;;
67146;SDS011;54061;52.036;5.558;2022-08-14T06:26:12;9.10;;;6.15;;
67146;SDS011;54061;52.036;5.558;2022-08-14T06:28:37;8.00;;;6.40;;
67146;SDS011;54061;52.036;5.558;2022-08-14T06:31:03;10.45;;;6.43;;
67146;SDS011;54061;52.036;5.558;2022-08-14T06:33:29;10.75;;;5.88;;
67146;SDS011;54061;52.036;5.558;2022-08-14T06:35:54;8.75;;;6.20;;
67146;SDS011;54061;52.036;5.558;2022-08-14T06:38:21;9.82;;;6.53;;
67146;SDS011;54061;52.036;5.558;2022-08-14T06:40:47;8.25;;;6.28;;
67146;SDS011;54061;52.036;5.558;2022-08-14T06:43:14;14.45;;;6.43;;
67146;SDS011;54061;52.036;5.558;2022-08-14T06:45:41;6.68;;;5.97;;
67146;SDS011;54061;52.036;5.558;2022-08-14T06:48:12;10.23;;;6.63;;
67146;SDS011;54061;52.036;5.558;2022-08-14T06:50:49;7.40;;;6.35;;
67146;SDS011;54061;52.036;5.558;2022-08-14T06:53:16;11.38;;;6.68;;
67146;SDS011;54061;52.036;5.558;2022-08-14T06:55:44;17.08;;;7.30;;
67146;SDS011;54061;52.036;5.558;2022-08-14T06:58:11;12.77;;;7.35;;
67146;SDS011;54061;52.036;5.558;2022-08-14T07:00:38;13.00;;;6.72;;
67146;SDS011;54061;52.036;5.558;2022-08-14T07:03:04;8.13;;;6.07;;
67146;SDS011;54061;52.036;5.558;2022-08-14T07:05:49;10.85;;;6.78;;
67146;SDS011;54061;52.036;5.558;2022-08-14T07:10:46;15.50;;;6.70;;
67146;SDS011;54061;52.036;5.558;2022-08-14T07:13:14;13.88;;;6.65;;
67146;SDS011;54061;52.036;5.558;2022-08-14T07:15:47;8.82;;;6.68;;
67146;SDS011;54061;52.036;5.558;2022-08-14T07:18:18;10.80;;;6.70;;
67146;SDS011;54061;52.036;5.558;2022-08-14T07:20:49;8.23;;;6.72;;
67146;SDS011;54061;52.036;5.558;2022-08-14T07:23:16;7.50;;;6.35;;
67146;SDS011;54061;52.036;5.558;2022-08-14T07:25:42;14.35;;;6.50;;
67146;SDS011;54061;52.036;5.558;2022-08-14T07:28:11;11.05;;;6.82;;
67146;SDS011;54061;52.036;5.558;2022-08-14T07:30:41;8.23;;;6.22;;
67146;SDS011;54061;52.036;5.558;2022-08-14T07:33:07;9.88;;;6.07;;
67146;SDS011;54061;52.036;5.558;2022-08-14T07:35:33;9.88;;;5.53;;
67146;SDS011;54061;52.036;5.558;2022-08-14T07:37:59;8.55;;;5.93;;
67146;SDS011;54061;52.036;5.558;2022-08-14T07:40:25;10.63;;;5.60;;
67146;SDS011;54061;52.036;5.558;2022-08-14T07:42:51;11.20;;;5.40;;
67146;SDS011;54061;52.036;5.558;2022-08-14T07:45:16;7.18;;;5.50;;
67146;SDS011;54061;52.036;5.558;2022-08-14T07:47:42;9.32;;;5.80;;
67146;SDS011;54061;52.036;5.558;2022-08-14T07:50:15;8.98;;;5.20;;
67146;SDS011;54061;52.036;5.558;2022-08-14T07:52:42;8.55;;;5.30;;
67146;SDS011;54061;52.036;5.558;2022-08-14T07:55:10;7.43;;;5.70;;
67146;SDS011;54061;52.036;5.558;2022-08-14T07:57:40;10.02;;;5.50;;
67146;SDS011;54061;52.036;5.558;2022-08-14T08:00:17;7.68;;;5.30;;
67146;SDS011;54061;52.036;5.558;2022-08-14T08:02:45;8.02;;;5.32;;
67146;SDS011;54061;52.036;5.558;2022-08-14T08:05:12;8.70;;;5.68;;
67146;SDS011;54061;52.036;5.558;2022-08-14T08:07:39;14.27;;;5.22;;
67146;SDS011;54061;52.036;5.558;2022-08-14T08:10:07;7.32;;;4.85;;
67146;SDS011;54061;52.036;5.558;2022-08-14T08:12:54;10.07;;;5.25;;
67146;SDS011;54061;52.036;5.558;2022-08-14T08:15:24;6.60;;;5.25;;
67146;SDS011;54061;52.036;5.558;2022-08-14T08:17:52;15.82;;;5.32;;
67146;SDS011;54061;52.036;5.558;2022-08-14T08:20:18;6.40;;;5.32;;
67146;SDS011;54061;52.036;5.558;2022-08-14T08:22:49;5.90;;;5.20;;
67146;SDS011;54061;52.036;5.558;2022-08-14T08:25:16;9.80;;;4.97;;
67146;SDS011;54061;52.036;5.558;2022-08-14T08:27:52;14.05;;;5.30;;
67146;SDS011;54061;52.036;5.558;2022-08-14T08:30:26;9.02;;;5.18;;
67146;SDS011;54061;52.036;5.558;2022-08-14T08:32:55;6.25;;;4.80;;
67146;SDS011;54061;52.036;5.558;2022-08-14T08:35:23;9.18;;;5.05;;
67146;SDS011;54061;52.036;5.558;2022-08-14T08:37:52;7.60;;;5.18;;
67146;SDS011;54061;52.036;5.558;2022-08-14T08:43:03;6.55;;;4.70;;
67146;SDS011;54061;52.036;5.558;2022-08-14T08:45:30;5.78;;;4.88;;
67146;SDS011;54061;52.036;5.558;2022-08-14T08:47:57;11.30;;;4.68;;
67146;SDS011;54061;52.036;5.558;2022-08-14T08:50:24;10.65;;;5.30;;
67146;SDS011;54061;52.036;5.558;2022-08-14T08:52:54;8.98;;;5.53;;
67146;SDS011;54061;52.036;5.558;2022-08-14T08:55:28;13.32;;;4.95;;
67146;SDS011;54061;52.036;5.558;2022-08-14T08:58:05;5.90;;;4.93;;
67146;SDS011;54061;52.036;5.558;2022-08-14T09:00:31;5.75;;;4.70;;
67146;SDS011;54061;52.036;5.558;2022-08-14T09:03:02;12.70;;;5.00;;
67146;SDS011;54061;52.036;5.558;2022-08-14T09:05:28;6.15;;;4.85;;
67146;SDS011;54061;52.036;5.558;2022-08-14T09:08:07;13.18;;;5.43;;
67146;SDS011;54061;52.036;5.558;2022-08-14T09:10:40;6.85;;;4.60;;
67146;SDS011;54061;52.036;5.558;2022-08-14T09:13:07;9.57;;;4.57;;
67146;SDS011;54061;52.036;5.558;2022-08-14T09:15:35;8.30;;;5.03;;
67146;SDS011;54061;52.036;5.558;2022-08-14T09:18:02;6.75;;;4.93;;
67146;SDS011;54061;52.036;5.558;2022-08-14T09:20:27;7.22;;;4.57;;
67146;SDS011;54061;52.036;5.558;2022-08-14T09:22:53;8.32;;;4.90;;
67146;SDS011;54061;52.036;5.558;2022-08-14T09:25:19;8.43;;;4.40;;
67146;SDS011;54061;52.036;5.558;2022-08-14T09:27:45;10.40;;;4.70;;
67146;SDS011;54061;52.036;5.558;2022-08-14T09:30:11;11.80;;;4.80;;
67146;SDS011;54061;52.036;5.558;2022-08-14T09:33:25;7.22;;;4.68;;
67146;SDS011;54061;52.036;5.558;2022-08-14T09:38:14;8.85;;;4.80;;
67146;SDS011;54061;52.036;5.558;2022-08-14T09:40:50;6.82;;;4.18;;
67146;SDS011;54061;52.036;5.558;2022-08-14T09:46:15;5.18;;;4.28;;
67146;SDS011;54061;52.036;5.558;2022-08-14T09:48:41;9.32;;;4.82;;
67146;SDS011;54061;52.036;5.558;2022-08-14T09:51:06;8.30;;;4.47;;
67146;SDS011;54061;52.036;5.558;2022-08-14T09:53:47;9.20;;;5.00;;
67146;SDS011;54061;52.036;5.558;2022-08-14T09:56:41;10.25;;;4.50;;
67146;SDS011;54061;52.036;5.558;2022-08-14T09:59:09;8.13;;;3.92;;
67146;SDS011;54061;52.036;5.558;2022-08-14T10:01:38;5.13;;;4.45;;
67146;SDS011;54061;52.036;5.558;2022-08-14T10:04:05;9.30;;;4.70;;
67146;SDS011;54061;52.036;5.558;2022-08-14T10:06:43;13.48;;;3.97;;
67146;SDS011;54061;52.036;5.558;2022-08-14T10:09:09;6.60;;;4.10;;
67146;SDS011;54061;52.036;5.558;2022-08-14T10:11:36;8.75;;;4.38;;
67146;SDS011;54061;52.036;5.558;2022-08-14T10:14:16;5.75;;;4.00;;
67146;SDS011;54061;52.036;5.558;2022-08-14T10:19:15;9.30;;;4.43;;
67146;SDS011;54061;52.036;5.558;2022-08-14T10:27:04;7.40;;;3.50;;
67146;SDS011;54061;52.036;5.558;2022-08-14T10:29:41;5.20;;;3.70;;
67146;SDS011;54061;52.036;5.558;2022-08-14T10:32:08;8.32;;;3.60;;
67146;SDS011;54061;52.036;5.558;2022-08-14T10:34:36;4.90;;;3.53;;
67146;SDS011;54061;52.036;5.558;2022-08-14T10:37:05;3.97;;;3.55;;
67146;SDS011;54061;52.036;5.558;2022-08-14T10:39:33;5.50;;;3.53;;
67146;SDS011;54061;52.036;5.558;2022-08-14T10:42:03;5.20;;;3.58;;
67146;SDS011;54061;52.036;5.558;2022-08-14T10:44:34;6.13;;;3.33;;
67146;SDS011;54061;52.036;5.558;2022-08-14T10:47:05;5.30;;;3.40;;
67146;SDS011;54061;52.036;5.558;2022-08-14T10:49:41;7.55;;;3.17;;
67146;SDS011;54061;52.036;5.558;2022-08-14T10:52:31;5.95;;;2.88;;
67146;SDS011;54061;52.036;5.558;2022-08-14T10:55:05;4.57;;;3.20;;
67146;SDS011;54061;52.036;5.558;2022-08-14T10:58:12;3.20;;;2.90;;
67146;SDS011;54061;52.036;5.558;2022-08-14T11:00:36;4.28;;;2.92;;
67146;SDS011;54061;52.036;5.558;2022-08-14T11:03:06;4.88;;;3.03;;
67146;SDS011;54061;52.036;5.558;2022-08-14T11:05:44;3.22;;;2.92;;
67146;SDS011;54061;52.036;5.558;2022-08-14T11:08:12;9.13;;;2.90;;
67146;SDS011;54061;52.036;5.558;2022-08-14T11:13:34;7.40;;;2.88;;
67146;SDS011;54061;52.036;5.558;2022-08-14T11:16:02;6.30;;;2.97;;
67146;SDS011;54061;52.036;5.558;2022-08-14T11:18:28;4.97;;;2.70;;
67146;SDS011;54061;52.036;5.558;2022-08-14T11:20:56;6.78;;;3.30;;
67146;SDS011;54061;52.036;5.558;2022-08-14T11:23:34;4.40;;;2.80;;
67146;SDS011;54061;52.036;5.558;2022-08-14T11:26:02;7.25;;;3.10;;
67146;SDS011;54061;52.036;5.558;2022-08-14T11:28:31;7.63;;;2.47;;
67146;SDS011;54061;52.036;5.558;2022-08-14T11:30:58;7.32;;;2.80;;
67146;SDS011;54061;52.036;5.558;2022-08-14T11:33:25;4.65;;;2.53;;
67146;SDS011;54061;52.036;5.558;2022-08-14T11:36:00;9.07;;;3.00;;
67146;SDS011;54061;52.036;5.558;2022-08-14T11:38:39;11.02;;;3.08;;
67146;SDS011;54061;52.036;5.558;2022-08-14T11:41:11;8.65;;;3.20;;
67146;SDS011;54061;52.036;5.558;2022-08-14T11:43:39;6.03;;;2.95;;
67146;SDS011;54061;52.036;5.558;2022-08-14T11:46:12;2.88;;;2.67;;
67146;SDS011;54061;52.036;5.558;2022-08-14T11:48:47;4.03;;;3.13;;
67146;SDS011;54061;52.036;5.558;2022-08-14T11:51:16;4.13;;;3.03;;
67146;SDS011;54061;52.036;5.558;2022-08-14T11:53:55;9.75;;;2.90;;
67146;SDS011;54061;52.036;5.558;2022-08-14T11:56:25;6.53;;;2.85;;
67146;SDS011;54061;52.036;5.558;2022-08-14T11:59:01;8.45;;;3.33;;
67146;SDS011;54061;52.036;5.558;2022-08-14T12:01:28;5.00;;;3.05;;
67146;SDS011;54061;52.036;5.558;2022-08-14T12:03:59;4.97;;;3.00;;
67146;SDS011;54061;52.036;5.558;2022-08-14T12:06:52;5.68;;;2.90;;
67146;SDS011;54061;52.036;5.558;2022-08-14T12:09:35;3.45;;;2.80;;
67146;SDS011;54061;52.036;5.558;2022-08-14T12:14:54;7.90;;;3.00;;
67146;SDS011;54061;52.036;5.558;2022-08-14T12:17:22;3.45;;;3.13;;
67146;SDS011;54061;52.036;5.558;2022-08-14T12:22:35;3.80;;;2.72;;
67146;SDS011;54061;52.036;5.558;2022-08-14T12:25:04;3.35;;;3.05;;
67146;SDS011;54061;52.036;5.558;2022-08-14T12:27:45;5.78;;;3.58;;
67146;SDS011;54061;52.036;5.558;2022-08-14T12:32:59;5.28;;;3.20;;
67146;SDS011;54061;52.036;5.558;2022-08-14T12:35:45;3.83;;;2.80;;
67146;SDS011;54061;52.036;5.558;2022-08-14T12:38:13;5.35;;;3.20;;
67146;SDS011;54061;52.036;5.558;2022-08-14T12:40:48;9.25;;;2.90;;
67146;SDS011;54061;52.036;5.558;2022-08-14T12:43:15;7.72;;;3.55;;
67146;SDS011;54061;52.036;5.558;2022-08-14T12:46:01;4.20;;;3.08;;
67146;SDS011;54061;52.036;5.558;2022-08-14T12:48:28;3.42;;;3.08;;
67146;SDS011;54061;52.036;5.558;2022-08-14T12:50:55;3.65;;;2.72;;
67146;SDS011;54061;52.036;5.558;2022-08-14T12:53:31;5.30;;;3.10;;
67146;SDS011;54061;52.036;5.558;2022-08-14T12:55:58;6.55;;;2.58;;
67146;SDS011;54061;52.036;5.558;2022-08-14T12:58:28;8.52;;;2.80;;
67146;SDS011;54061;52.036;5.558;2022-08-14T13:00:54;8.65;;;3.17;;
67146;SDS011;54061;52.036;5.558;2022-08-14T13:03:24;3.80;;;2.75;;
67146;SDS011;54061;52.036;5.558;2022-08-14T13:05:51;5.15;;;3.00;;
67146;SDS011;54061;52.036;5.558;2022-08-14T13:08:17;7.05;;;3.10;;
67146;SDS011;54061;52.036;5.558;2022-08-14T13:10:43;4.75;;;3.25;;
67146;SDS011;54061;52.036;5.558;2022-08-14T13:13:11;2.90;;;2.70;;
67146;SDS011;54061;52.036;5.558;2022-08-14T13:15:43;4.65;;;2.70;;
67146;SDS011;54061;52.036;5.558;2022-08-14T13:18:11;4.25;;;3.20;;
67146;SDS011;54061;52.036;5.558;2022-08-14T13:20:41;4.28;;;2.88;;
67146;SDS011;54061;52.036;5.558;2022-08-14T13:23:08;5.57;;;2.88;;
67146;SDS011;54061;52.036;5.558;2022-08-14T13:25:34;4.10;;;2.92;;
67146;SDS011;54061;52.036;5.558;2022-08-14T13:28:02;4.68;;;2.90;;
67146;SDS011;54061;52.036;5.558;2022-08-14T13:30:28;4.32;;;2.80;;
67146;SDS011;54061;52.036;5.558;2022-08-14T13:32:56;7.22;;;3.10;;
67146;SDS011;54061;52.036;5.558;2022-08-14T13:35:22;4.85;;;3.03;;
67146;SDS011;54061;52.036;5.558;2022-08-14T13:37:48;5.32;;;3.17;;
67146;SDS011;54061;52.036;5.558;2022-08-14T13:40:15;3.40;;;3.10;;
67146;SDS011;54061;52.036;5.558;2022-08-14T13:42:44;4.20;;;3.08;;
67146;SDS011;54061;52.036;5.558;2022-08-14T13:45:11;4.32;;;3.40;;
67146;SDS011;54061;52.036;5.558;2022-08-14T13:47:38;7.00;;;2.85;;
67146;SDS011;54061;52.036;5.558;2022-08-14T13:50:05;8.40;;;2.92;;
67146;SDS011;54061;52.036;5.558;2022-08-14T13:52:38;5.43;;;3.20;;
67146;SDS011;54061;52.036;5.558;2022-08-14T13:55:05;3.42;;;3.22;;
67146;SDS011;54061;52.036;5.558;2022-08-14T13:57:32;7.60;;;3.17;;
67146;SDS011;54061;52.036;5.558;2022-08-14T14:00:00;7.22;;;3.30;;
67146;SDS011;54061;52.036;5.558;2022-08-14T14:02:33;4.38;;;2.92;;
67146;SDS011;54061;52.036;5.558;2022-08-14T14:05:02;3.60;;;3.03;;
67146;SDS011;54061;52.036;5.558;2022-08-14T14:07:28;3.58;;;2.90;;
67146;SDS011;54061;52.036;5.558;2022-08-14T14:09:57;8.73;;;3.05;;
67146;SDS011;54061;52.036;5.558;2022-08-14T14:12:26;8.93;;;3.80;;
67146;SDS011;54061;52.036;5.558;2022-08-14T14:14:51;4.88;;;3.35;;
67146;SDS011;54061;52.036;5.558;2022-08-14T14:17:17;8.02;;;3.63;;
67146;SDS011;54061;52.036;5.558;2022-08-14T14:19:48;7.38;;;3.20;;
67146;SDS011;54061;52.036;5.558;2022-08-14T14:22:15;4.85;;;3.53;;
67146;SDS011;54061;52.036;5.558;2022-08-14T14:24:42;6.70;;;3.35;;
67146;SDS011;54061;52.036;5.558;2022-08-14T14:27:10;7.38;;;3.10;;
67146;SDS011;54061;52.036;5.558;2022-08-14T14:29:38;5.95;;;3.50;;
67146;SDS011;54061;52.036;5.558;2022-08-14T14:32:10;6.20;;;3.22;;
67146;SDS011;54061;52.036;5.558;2022-08-14T14:34:36;4.72;;;3.17;;
67146;SDS011;54061;52.036;5.558;2022-08-14T14:37:03;6.93;;;4.38;;
67146;SDS011;54061;52.036;5.558;2022-08-14T14:39:30;8.50;;;3.40;;
67146;SDS011;54061;52.036;5.558;2022-08-14T14:41:57;5.28;;;3.17;;
67146;SDS011;54061;52.036;5.558;2022-08-14T14:44:27;3.90;;;3.17;;
67146;SDS011;54061;52.036;5.558;2022-08-14T14:46:58;8.45;;;3.20;;
67146;SDS011;54061;52.036;5.558;2022-08-14T14:49:25;3.30;;;3.00;;
67146;SDS011;54061;52.036;5.558;2022-08-14T14:51:53;4.45;;;3.10;;
67146;SDS011;54061;52.036;5.558;2022-08-14T14:54:20;3.40;;;3.10;;
67146;SDS011;54061;52.036;5.558;2022-08-14T14:56:49;7.32;;;3.42;;
67146;SDS011;54061;52.036;5.558;2022-08-14T14:59:16;5.18;;;3.33;;
67146;SDS011;54061;52.036;5.558;2022-08-14T15:01:46;4.20;;;3.40;;
67146;SDS011;54061;52.036;5.558;2022-08-14T15:04:13;5.15;;;3.20;;
67146;SDS011;54061;52.036;5.558;2022-08-14T15:06:38;3.53;;;3.22;;
67146;SDS011;54061;52.036;5.558;2022-08-14T15:09:04;8.95;;;3.35;;
67146;SDS011;54061;52.036;5.558;2022-08-14T15:11:29;6.97;;;3.00;;
67146;SDS011;54061;52.036;5.558;2022-08-14T15:13:56;4.50;;;2.97;;
67146;SDS011;54061;52.036;5.558;2022-08-14T15:16:22;6.68;;;3.17;;
67146;SDS011;54061;52.036;5.558;2022-08-14T15:18:50;4.63;;;3.30;;
67146;SDS011;54061;52.036;5.558;2022-08-14T15:21:15;3.60;;;2.63;;
67146;SDS011;54061;52.036;5.558;2022-08-14T15:23:41;4.38;;;3.20;;
67146;SDS011;54061;52.036;5.558;2022-08-14T15:26:07;4.78;;;2.80;;
67146;SDS011;54061;52.036;5.558;2022-08-14T15:28:32;7.03;;;3.03;;
67146;SDS011;54061;52.036;5.558;2022-08-14T15:31:02;7.68;;;3.42;;